createdAt,value
2023-04-05T00:01:54.387Z,0.70
2023-04-05T00:04:24.053Z,0.70
2023-04-05T00:06:57.861Z,0.50
2023-04-05T00:09:27.351Z,0.30
2023-04-05T00:11:58.131Z,0.67
2023-04-05T00:14:27.247Z,0.57
2023-04-05T00:16:56.967Z,0.60
2023-04-05T00:19:26.263Z,0.70
2023-04-05T00:21:57.389Z,0.80
2023-04-05T00:24:26.724Z,0.60
2023-04-05T00:26:58.688Z,0.70
2023-04-05T00:29:29.360Z,0.60
2023-04-05T00:31:59.608Z,0.70
2023-04-05T00:34:29.513Z,0.77
2023-04-05T00:36:59.879Z,0.60
2023-04-05T00:39:29.639Z,0.60
2023-04-05T00:41:59.151Z,0.80
2023-04-05T00:44:29.614Z,0.73
2023-04-05T00:46:59.418Z,0.60
2023-04-05T00:49:28.596Z,0.63
2023-04-05T00:51:59.185Z,0.57
2023-04-05T00:54:30.868Z,0.37
2023-04-05T00:57:01.583Z,0.50
2023-04-05T00:59:31.503Z,0.60
2023-04-05T01:02:05.546Z,0.47
2023-04-05T01:04:37.231Z,0.70
2023-04-05T01:07:12.440Z,0.80
2023-04-05T01:09:50.069Z,0.50
2023-04-05T01:12:20.910Z,0.50
2023-04-05T01:14:51.964Z,0.50
2023-04-05T01:17:24.163Z,0.60
2023-04-05T01:19:54.432Z,0.70
2023-04-05T01:22:38.281Z,0.53
2023-04-05T01:25:23.716Z,0.67
2023-04-05T01:28:09.047Z,0.63
2023-04-05T01:30:43.756Z,0.30
2023-04-05T01:33:17.249Z,0.50
2023-04-05T01:35:50.580Z,0.80
2023-04-05T01:38:27.176Z,0.77
2023-04-05T01:40:56.069Z,0.97
2023-04-05T01:43:26.310Z,0.60
2023-04-05T01:45:58.969Z,0.80
2023-04-05T01:48:28.747Z,0.70
2023-04-05T01:50:58.688Z,0.60
2023-04-05T01:53:28.632Z,0.70
2023-04-05T01:56:01.448Z,0.60
2023-04-05T01:58:30.254Z,0.70
2023-04-05T02:01:01.293Z,0.30
2023-04-05T02:03:30.805Z,0.73
2023-04-05T02:06:00.657Z,0.60
2023-04-05T02:08:29.650Z,0.83
2023-04-05T02:10:59.022Z,0.47
2023-04-05T02:13:29.423Z,0.83
2023-04-05T02:15:58.044Z,0.50
2023-04-05T02:18:33.089Z,0.80
2023-04-05T02:21:05.441Z,0.70
2023-04-05T02:23:35.455Z,0.77
2023-04-05T02:26:04.442Z,0.67
2023-04-05T02:28:34.860Z,0.60
2023-04-05T02:31:05.725Z,0.80
2023-04-05T02:33:38.774Z,0.70
2023-04-05T02:36:09.933Z,0.57
2023-04-05T02:38:39.559Z,0.83
2023-04-05T02:41:13.144Z,0.67
2023-04-05T02:43:43.167Z,0.70
2023-04-05T02:46:13.323Z,0.70
2023-04-05T02:48:46.854Z,0.57
2023-04-05T02:51:16.744Z,0.80
2023-04-05T02:53:47.307Z,0.50
2023-04-05T02:56:17.342Z,0.80
2023-04-05T02:58:49.651Z,0.70
2023-04-05T03:01:20.925Z,0.77
2023-04-05T03:03:53.548Z,0.63
2023-04-05T03:06:24.138Z,0.60
2023-04-05T03:08:55.013Z,0.50
2023-04-05T03:11:23.559Z,0.73
2023-04-05T03:13:53.779Z,0.57
2023-04-05T03:16:23.338Z,0.70
2023-04-05T03:18:55.497Z,0.70
2023-04-05T03:21:27.287Z,0.90
2023-04-05T03:23:56.948Z,0.73
2023-04-05T03:26:27.856Z,0.70
2023-04-05T03:28:56.446Z,0.60
2023-04-05T03:31:31.047Z,0.67
2023-04-05T03:34:03.327Z,0.50
2023-04-05T03:36:42.354Z,0.60
2023-04-05T03:39:11.315Z,0.60
2023-04-05T03:41:42.023Z,0.73
2023-04-05T03:44:12.222Z,0.80
2023-04-05T03:46:44.258Z,0.70
2023-04-05T03:49:14.433Z,0.70
2023-04-05T03:51:42.908Z,0.73
2023-04-05T03:54:11.345Z,0.80
2023-04-05T03:56:40.272Z,0.57
2023-04-05T03:59:09.354Z,0.60
2023-04-05T04:01:40.836Z,0.87
2023-04-05T04:04:10.418Z,0.60
2023-04-05T04:06:42.133Z,0.63
2023-04-05T04:09:12.353Z,0.80
2023-04-05T04:11:41.624Z,0.77
2023-04-05T04:14:10.999Z,0.70
2023-04-05T04:16:42.930Z,0.70
2023-04-05T04:19:13.270Z,0.60
2023-04-05T04:21:54.720Z,0.70
2023-04-05T04:24:27.417Z,0.60
2023-04-05T04:26:57.506Z,0.63
2023-04-05T04:29:31.482Z,0.40
2023-04-05T04:32:01.428Z,0.80
2023-04-05T04:34:32.269Z,0.70
2023-04-05T04:37:04.571Z,0.50
2023-04-05T04:39:36.191Z,0.53
2023-04-05T04:42:11.551Z,0.70
2023-04-05T04:44:42.842Z,0.90
2023-04-05T04:47:20.267Z,0.70
2023-04-05T04:49:50.445Z,0.73
2023-04-05T04:52:23.207Z,0.83
2023-04-05T04:54:53.215Z,0.80
2023-04-05T04:57:31.482Z,0.70
2023-04-05T05:00:02.046Z,0.60
2023-04-05T05:02:31.588Z,0.73
2023-04-05T05:05:02.204Z,0.80
2023-04-05T05:07:33.561Z,0.90
2023-04-05T05:10:03.594Z,1.30
2023-04-05T05:12:35.900Z,1.10
2023-04-05T05:15:07.048Z,1.00
2023-04-05T05:17:36.084Z,0.93
2023-04-05T05:20:12.019Z,0.73
2023-04-05T05:22:44.014Z,0.80
2023-04-05T05:25:13.575Z,0.70
2023-04-05T05:27:42.754Z,0.80
2023-04-05T05:30:14.533Z,0.80
2023-04-05T05:32:44.891Z,0.70
2023-04-05T05:35:15.673Z,0.60
2023-04-05T05:37:46.247Z,0.90
2023-04-05T05:40:18.407Z,0.80
2023-04-05T05:42:49.289Z,0.80
2023-04-05T05:45:18.560Z,0.80
2023-04-05T05:47:48.289Z,0.73
2023-04-05T05:50:21.833Z,0.97
2023-04-05T05:52:55.226Z,0.60
2023-04-05T05:55:26.225Z,0.70
2023-04-05T05:57:56.975Z,0.87
2023-04-05T06:00:26.780Z,0.90
2023-04-05T06:02:55.530Z,1.20
2023-04-05T06:05:26.780Z,0.83
2023-04-05T06:07:59.999Z,0.73
2023-04-05T06:10:30.280Z,0.70
2023-04-05T06:12:59.503Z,0.80
2023-04-05T06:15:28.540Z,1.10
2023-04-05T06:18:00.338Z,0.80
2023-04-05T06:20:30.977Z,0.70
2023-04-05T06:23:04.818Z,0.67
2023-04-05T06:25:33.818Z,0.90
2023-04-05T06:28:04.545Z,1.00
2023-04-05T06:30:35.880Z,0.90
2023-04-05T06:33:07.128Z,1.40
2023-04-05T06:35:37.907Z,1.70
2023-04-05T06:38:10.057Z,1.77
2023-04-05T06:40:38.926Z,1.70
2023-04-05T06:43:10.973Z,1.53
2023-04-05T06:45:42.611Z,1.00
2023-04-05T06:48:14.205Z,1.20
2023-04-05T06:50:47.294Z,1.10
2023-04-05T06:53:19.991Z,1.10
2023-04-05T06:55:51.342Z,0.80
2023-04-05T06:58:22.731Z,0.87
2023-04-05T07:00:53.536Z,0.80
2023-04-05T07:03:22.882Z,0.80
2023-04-05T07:05:57.138Z,0.90
2023-04-05T07:08:27.789Z,0.90
2023-04-05T07:10:56.400Z,0.90
2023-04-05T07:13:28.314Z,0.80
2023-04-05T07:16:01.958Z,0.93
2023-04-05T07:18:32.139Z,1.20
2023-04-05T07:21:01.994Z,1.00
2023-04-05T07:23:34.428Z,1.00
2023-04-05T07:26:08.118Z,0.90
2023-04-05T07:28:39.415Z,1.00
2023-04-05T07:31:10.786Z,1.07
2023-04-05T07:33:39.455Z,1.07
2023-04-05T07:36:10.814Z,1.10
2023-04-05T07:38:44.365Z,1.23
2023-04-05T07:41:13.830Z,1.20
2023-04-05T07:43:43.086Z,1.00
2023-04-05T07:46:12.219Z,0.90
2023-04-05T07:48:41.761Z,1.10
2023-04-05T07:51:12.816Z,1.20
2023-04-05T07:53:47.300Z,0.77
2023-04-05T07:56:17.187Z,1.10
2023-04-05T07:58:52.701Z,0.80
2023-04-05T08:01:28.774Z,1.10
2023-04-05T08:04:00.229Z,0.70
2023-04-05T08:06:30.851Z,0.50
2023-04-05T08:09:08.013Z,0.80
2023-04-05T08:11:37.252Z,0.60
2023-04-05T08:14:07.160Z,0.70
2023-04-05T08:16:38.653Z,0.70
2023-04-05T08:19:08.070Z,0.60
2023-04-05T08:21:38.757Z,0.70
2023-04-05T08:24:12.049Z,0.60
2023-04-05T08:26:43.958Z,0.70
2023-04-05T08:29:14.882Z,0.40
2023-04-05T08:31:45.357Z,0.60
2023-04-05T08:34:14.136Z,0.50
2023-04-05T08:36:47.586Z,0.70
2023-04-05T08:39:21.040Z,0.70
2023-04-05T08:41:58.325Z,0.37
2023-04-05T08:44:28.773Z,0.50
2023-04-05T08:47:00.874Z,0.50
2023-04-05T08:49:33.800Z,0.57
2023-04-05T08:52:07.079Z,0.30
2023-04-05T08:54:38.825Z,0.60
2023-04-05T08:57:09.271Z,0.30
2023-04-05T08:59:41.543Z,0.53
2023-04-05T09:02:15.214Z,0.43
2023-04-05T09:04:47.075Z,0.37
2023-04-05T09:07:17.308Z,0.30
2023-04-05T09:09:49.172Z,0.43
2023-04-05T09:12:19.282Z,0.23
2023-04-05T09:14:51.346Z,0.10
2023-04-05T09:17:21.716Z,0.20
2023-04-05T09:19:53.250Z,0.10
2023-04-05T09:22:26.444Z,0.20
2023-04-05T09:24:58.543Z,0.23
2023-04-05T09:27:28.510Z,0.00
2023-04-05T09:29:57.381Z,0.20
2023-04-05T09:32:31.480Z,0.20
2023-04-05T09:35:04.622Z,0.30
2023-04-05T09:37:34.787Z,0.10
2023-04-05T09:40:08.384Z,0.17
2023-04-05T09:42:46.530Z,0.10
2023-04-05T09:45:18.487Z,0.20
2023-04-05T09:47:56.655Z,0.20
2023-04-05T09:50:28.385Z,0.10
2023-04-05T09:53:08.220Z,0.10
2023-04-05T09:55:39.980Z,0.00
2023-04-05T09:58:13.669Z,0.10
2023-04-05T10:00:57.947Z,0.10
2023-04-05T10:03:34.941Z,0.20
2023-04-05T10:06:05.576Z,0.10
2023-04-05T10:08:36.807Z,0.10
2023-04-05T10:11:11.321Z,0.13
2023-04-05T10:13:42.945Z,0.20
2023-04-05T10:16:16.453Z,0.20
2023-04-05T10:18:53.214Z,0.17
2023-04-05T10:21:25.046Z,0.20
2023-04-05T10:23:58.042Z,0.30
2023-04-05T10:26:33.308Z,0.10
2023-04-05T10:29:05.231Z,0.20
2023-04-05T10:31:41.559Z,0.20
2023-04-05T10:34:17.529Z,0.10
2023-04-05T10:36:51.059Z,0.13
2023-04-05T10:39:26.843Z,0.30
2023-04-05T10:42:02.137Z,0.10
2023-04-05T10:44:34.849Z,0.00
2023-04-05T10:47:06.165Z,0.20
2023-04-05T10:49:36.584Z,0.10
2023-04-05T10:52:06.387Z,0.17
2023-04-05T10:54:39.879Z,0.10
2023-04-05T10:57:12.291Z,0.10
2023-04-05T10:59:44.658Z,0.13
2023-04-05T11:02:15.591Z,0.10
2023-04-05T11:04:47.143Z,0.20
2023-04-05T11:07:17.781Z,0.20
2023-04-05T11:09:58.070Z,0.20
2023-04-05T11:12:47.160Z,0.20
2023-04-05T11:15:33.491Z,0.10
2023-04-05T11:18:12.918Z,0.30
2023-04-05T11:20:43.301Z,0.20
2023-04-05T11:23:13.130Z,0.10
2023-04-05T11:25:43.708Z,0.13
2023-04-05T11:28:24.698Z,0.30
2023-04-05T11:30:59.185Z,0.03
2023-04-05T11:33:58.891Z,0.10
2023-04-05T11:36:34.256Z,0.30
2023-04-05T11:39:17.875Z,0.10
2023-04-05T11:41:48.930Z,0.10
2023-04-05T11:44:18.807Z,0.20
2023-04-05T11:46:49.734Z,0.10
2023-04-05T11:49:19.284Z,0.07
2023-04-05T11:51:50.678Z,0.10
2023-04-05T11:54:33.493Z,0.10
2023-04-05T11:57:04.111Z,0.17
2023-04-05T11:59:36.129Z,0.10
2023-04-05T12:02:09.280Z,0.17
2023-04-05T12:04:40.860Z,0.13
2023-04-05T12:07:16.641Z,0.10
2023-04-05T12:10:02.116Z,0.20
2023-04-05T12:12:35.359Z,0.20
2023-04-05T12:15:05.800Z,0.17
2023-04-05T12:17:43.224Z,0.20
2023-04-05T12:20:14.659Z,0.17
2023-04-05T12:22:45.907Z,0.10
2023-04-05T12:25:15.098Z,0.13
2023-04-05T12:27:44.897Z,0.20
2023-04-05T12:30:18.385Z,0.27
2023-04-05T12:32:54.476Z,0.10
2023-04-05T12:35:24.413Z,0.20
2023-04-05T12:37:55.280Z,0.20
2023-04-05T12:40:26.995Z,0.30
2023-04-05T12:43:03.814Z,0.20
2023-04-05T12:45:41.462Z,0.20
2023-04-05T12:48:16.192Z,0.23
2023-04-05T12:50:47.720Z,0.10
2023-04-05T12:53:22.295Z,0.27
2023-04-05T12:55:53.741Z,0.30
2023-04-05T12:58:25.819Z,0.30
2023-04-05T13:00:56.704Z,0.30
2023-04-05T13:03:28.933Z,0.30
2023-04-05T13:05:59.847Z,0.30
2023-04-05T13:08:28.890Z,0.20
2023-04-05T13:11:00.148Z,0.20
2023-04-05T13:13:31.088Z,0.20
2023-04-05T13:16:00.511Z,0.37
2023-04-05T13:18:32.903Z,0.30
2023-04-05T13:21:07.839Z,0.10
2023-04-05T13:23:37.878Z,0.20
2023-04-05T13:26:07.871Z,0.20
2023-04-05T13:28:39.432Z,0.20
2023-04-05T13:31:08.444Z,0.10
2023-04-05T13:33:38.706Z,0.10
2023-04-05T13:36:11.439Z,0.37
2023-04-05T13:38:43.039Z,0.10
2023-04-05T13:41:12.796Z,0.10
2023-04-05T13:43:46.983Z,0.50
2023-04-05T13:46:17.822Z,0.13
2023-04-05T13:48:48.851Z,0.20
2023-04-05T13:51:20.675Z,0.40
2023-04-05T13:53:54.969Z,0.10
2023-04-05T13:56:26.628Z,0.20
2023-04-05T13:59:01.309Z,0.30
2023-04-05T14:01:31.704Z,0.20
2023-04-05T14:04:01.888Z,0.10
2023-04-05T14:06:31.187Z,0.17
2023-04-05T14:09:00.374Z,0.30
2023-04-05T14:11:31.367Z,0.20
2023-04-05T14:14:00.438Z,0.20
2023-04-05T14:16:29.069Z,0.10
2023-04-05T14:19:00.447Z,0.20
2023-04-05T14:21:33.418Z,0.20
2023-04-05T14:24:02.157Z,0.20
2023-04-05T14:26:32.018Z,0.10
2023-04-05T14:29:04.128Z,0.10
2023-04-05T14:31:34.752Z,0.10
2023-04-05T14:34:04.059Z,0.20
2023-04-05T14:36:36.605Z,0.20
2023-04-05T14:39:06.608Z,0.10
2023-04-05T14:41:36.066Z,0.20
2023-04-05T14:44:06.606Z,0.30
2023-04-05T14:46:35.862Z,0.30
2023-04-05T14:49:04.764Z,0.20
2023-04-05T14:51:36.848Z,0.20
2023-04-05T14:54:05.584Z,0.20
2023-04-05T14:56:36.767Z,0.27
2023-04-05T14:59:07.651Z,0.10
2023-04-05T15:01:37.264Z,0.20
2023-04-05T15:04:09.452Z,0.10
2023-04-05T15:06:42.353Z,0.23
2023-04-05T15:09:13.417Z,0.10
2023-04-05T15:11:44.532Z,0.20
2023-04-05T15:14:28.657Z,0.20
2023-04-05T15:17:00.876Z,0.30
2023-04-05T15:19:30.942Z,0.30
2023-04-05T15:22:03.147Z,0.27
2023-04-05T15:24:32.678Z,0.20
2023-04-05T15:27:04.056Z,0.30
2023-04-05T15:29:35.971Z,0.13
2023-04-05T15:32:04.733Z,0.20
2023-04-05T15:34:36.874Z,0.20
2023-04-05T15:37:09.194Z,0.10
2023-04-05T15:39:39.067Z,0.20
2023-04-05T15:42:10.704Z,0.40
2023-04-05T15:44:44.104Z,0.17
2023-04-05T15:47:13.235Z,0.20
2023-04-05T15:49:43.953Z,0.20
2023-04-05T15:52:16.952Z,0.20
2023-04-05T15:54:47.829Z,0.23
2023-04-05T15:57:17.926Z,0.20
2023-04-05T15:59:47.388Z,0.10
2023-04-05T16:02:17.888Z,0.20
2023-04-05T16:04:49.810Z,0.40
2023-04-05T16:07:20.986Z,0.23
2023-04-05T16:09:51.564Z,0.20
2023-04-05T16:12:20.900Z,0.40
2023-04-05T16:14:53.175Z,0.30
2023-04-05T16:17:23.554Z,0.10
2023-04-05T16:19:54.626Z,0.10
2023-04-05T16:22:30.123Z,0.30
2023-04-05T16:25:00.185Z,0.30
2023-04-05T16:27:31.712Z,0.30
2023-04-05T16:30:02.147Z,0.20
2023-04-05T16:32:32.535Z,0.30
2023-04-05T16:35:01.726Z,0.33
2023-04-05T16:37:35.349Z,0.20
2023-04-05T16:40:06.523Z,0.33
2023-04-05T16:42:37.376Z,0.20
2023-04-05T16:45:08.640Z,0.37
2023-04-05T16:47:39.379Z,0.20
2023-04-05T16:50:09.641Z,0.30
2023-04-05T16:52:42.786Z,0.30
2023-04-05T16:55:11.860Z,0.40
2023-04-05T16:57:41.649Z,0.30
2023-04-05T17:00:12.414Z,0.40
2023-04-05T17:02:41.646Z,0.20
2023-04-05T17:05:10.621Z,0.33
2023-04-05T17:07:43.173Z,0.30
2023-04-05T17:10:13.078Z,0.30
2023-04-05T17:12:46.916Z,0.30
2023-04-05T17:15:17.108Z,0.20
2023-04-05T17:17:47.910Z,0.23
2023-04-05T17:20:17.149Z,0.30
2023-04-05T17:22:48.012Z,0.33
2023-04-05T17:25:19.017Z,0.33
2023-04-05T17:27:48.015Z,0.37
2023-04-05T17:30:19.466Z,0.40
2023-04-05T17:32:50.972Z,0.40
2023-04-05T17:35:20.140Z,0.53
2023-04-05T17:37:52.804Z,0.70
2023-04-05T17:40:23.810Z,0.40
2023-04-05T17:42:52.564Z,0.50
2023-04-05T17:45:22.432Z,0.40
2023-04-05T17:47:53.432Z,0.67
2023-04-05T17:50:25.448Z,0.60
2023-04-05T17:52:57.664Z,0.70
2023-04-05T17:55:28.063Z,0.53
2023-04-05T17:57:57.126Z,0.60
2023-04-05T18:00:28.917Z,0.60
2023-04-05T18:02:58.948Z,0.43
2023-04-05T18:05:31.143Z,0.70
2023-04-05T18:08:03.335Z,0.70
2023-04-05T18:10:33.047Z,0.63
2023-04-05T18:13:05.097Z,0.50
2023-04-05T18:15:37.484Z,0.50
2023-04-05T18:18:06.780Z,0.40
2023-04-05T18:20:37.640Z,0.50
2023-04-05T18:23:11.214Z,0.40
2023-04-05T18:25:41.732Z,0.80
2023-04-05T18:28:22.442Z,0.70
2023-04-05T18:30:54.576Z,0.50
2023-04-05T18:33:26.192Z,0.70
2023-04-05T18:35:57.593Z,0.73
2023-04-05T18:38:30.534Z,0.67
2023-04-05T18:41:02.837Z,0.70
2023-04-05T18:43:34.523Z,0.63
2023-04-05T18:46:03.533Z,0.80
2023-04-05T18:48:34.580Z,0.60
2023-04-05T18:51:05.199Z,0.53
2023-04-05T18:53:36.979Z,0.70
2023-04-05T18:56:10.599Z,0.80
2023-04-05T18:58:41.441Z,0.63
2023-04-05T19:01:15.241Z,0.67
2023-04-05T19:03:46.222Z,0.80
2023-04-05T19:06:18.248Z,0.70
2023-04-05T19:08:50.088Z,0.70
2023-04-05T19:11:19.403Z,0.83
2023-04-05T19:13:50.090Z,0.70
2023-04-05T19:16:20.802Z,0.90
2023-04-05T19:18:51.204Z,0.70
2023-04-05T19:21:21.711Z,0.70
2023-04-05T19:23:52.258Z,1.00
2023-04-05T19:26:23.073Z,0.70
2023-04-05T19:28:52.193Z,0.90
2023-04-05T19:31:22.434Z,0.90
2023-04-05T19:33:53.084Z,0.77
2023-04-05T19:36:23.199Z,0.80
2023-04-05T19:38:53.904Z,0.80
2023-04-05T19:41:25.747Z,0.60
2023-04-05T19:43:56.323Z,0.70
2023-04-05T19:46:26.157Z,1.00
2023-04-05T19:48:56.089Z,0.70
2023-04-05T19:51:29.178Z,0.80
2023-04-05T19:54:01.544Z,0.80
2023-04-05T19:56:34.076Z,0.70
2023-04-05T19:59:06.554Z,0.63
2023-04-05T20:01:36.730Z,1.00
2023-04-05T20:04:12.859Z,1.00
2023-04-05T20:06:42.497Z,0.90
2023-04-05T20:09:15.218Z,0.90
2023-04-05T20:11:52.130Z,0.90
2023-04-05T20:14:22.423Z,0.97
2023-04-05T20:16:52.907Z,0.90
2023-04-05T20:19:29.300Z,0.80
2023-04-05T20:21:59.906Z,0.90
2023-04-05T20:24:31.323Z,0.87
2023-04-05T20:27:04.653Z,0.83
2023-04-05T20:29:36.514Z,0.90
2023-04-05T20:32:07.222Z,1.00
2023-04-05T20:34:38.396Z,1.10
2023-04-05T20:37:09.986Z,0.80
2023-04-05T20:39:40.378Z,0.73
2023-04-05T20:42:11.789Z,0.90
2023-04-05T20:44:41.625Z,0.93
2023-04-05T20:47:11.927Z,0.83
2023-04-05T20:49:40.975Z,1.03
2023-04-05T20:52:11.465Z,0.97
2023-04-05T20:54:44.383Z,1.00
2023-04-05T20:57:14.936Z,1.00
2023-04-05T20:59:44.754Z,1.00
2023-04-05T21:02:14.308Z,1.23
2023-04-05T21:04:44.382Z,1.00
2023-04-05T21:07:13.290Z,1.03
2023-04-05T21:09:44.882Z,1.13
2023-04-05T21:12:14.192Z,1.07
2023-04-05T21:14:43.978Z,1.10
2023-04-05T21:17:13.793Z,0.97
2023-04-05T21:19:43.223Z,0.97
2023-04-05T21:22:12.990Z,1.03
2023-04-05T21:24:43.826Z,0.90
2023-04-05T21:27:12.897Z,1.00
2023-04-05T21:29:42.715Z,1.00
2023-04-05T21:32:11.625Z,1.13
2023-04-05T21:34:41.067Z,1.00
2023-04-05T21:37:10.354Z,1.20
2023-04-05T21:39:39.546Z,0.97
2023-04-05T21:42:10.935Z,1.00
2023-04-05T21:44:40.372Z,1.00
2023-04-05T21:47:10.351Z,0.80
2023-04-05T21:49:39.725Z,0.90
2023-04-05T21:52:08.995Z,0.83
2023-04-05T21:54:39.517Z,1.03
2023-04-05T21:57:11.107Z,0.87
2023-04-05T21:59:44.698Z,0.80
2023-04-05T22:02:15.047Z,0.90
2023-04-05T22:04:44.197Z,0.77
2023-04-05T22:07:13.251Z,0.90
2023-04-05T22:09:44.222Z,1.00
2023-04-05T22:12:15.938Z,0.83
2023-04-05T22:14:45.231Z,0.97
2023-04-05T22:17:14.531Z,0.70
2023-04-05T22:19:46.968Z,0.70
2023-04-05T22:22:16.830Z,0.83
2023-04-05T22:24:47.976Z,0.87
2023-04-05T22:27:18.214Z,0.90
2023-04-05T22:29:49.385Z,1.10
2023-04-05T22:32:18.561Z,1.00
2023-04-05T22:34:47.805Z,1.00
2023-04-05T22:37:17.160Z,1.00
2023-04-05T22:39:45.942Z,0.83
2023-04-05T22:42:15.434Z,0.93
2023-04-05T22:44:47.162Z,0.90
2023-04-05T22:47:17.842Z,0.90
2023-04-05T22:49:48.863Z,0.83
2023-04-05T22:52:17.883Z,1.00
2023-04-05T22:54:47.400Z,0.83
2023-04-05T22:57:17.253Z,0.77
2023-04-05T22:59:48.302Z,0.80
2023-04-05T23:02:18.197Z,0.83
2023-04-05T23:04:47.267Z,0.70
2023-04-05T23:07:16.483Z,0.87
2023-04-05T23:09:46.213Z,0.77
2023-04-05T23:12:16.263Z,0.73
2023-04-05T23:14:44.964Z,0.70
2023-04-05T23:17:16.282Z,0.50
2023-04-05T23:19:46.236Z,0.63
2023-04-05T23:22:15.783Z,0.80
2023-04-05T23:24:44.942Z,0.77
2023-04-05T23:27:14.201Z,0.47
2023-04-05T23:29:45.198Z,0.70
2023-04-05T23:32:17.173Z,0.70
2023-04-05T23:34:47.962Z,0.83
2023-04-05T23:37:17.412Z,0.60
2023-04-05T23:39:47.240Z,0.73
2023-04-05T23:42:16.468Z,0.80
2023-04-05T23:44:47.256Z,0.70
2023-04-05T23:47:19.128Z,0.67
2023-04-05T23:49:48.781Z,0.50
2023-04-05T23:52:18.519Z,0.60
2023-04-05T23:54:47.494Z,0.70
2023-04-05T23:57:17.885Z,0.60
2023-04-05T23:59:47.073Z,0.70
